• Join FlightAware (Why Join?)
  • Login
  • US Flag GB Flag 
22:18 EDT


 

Airport Tracker/Info


-or-


 

Live Flight TrackerFlight Track Log ✈ UAL139 ✈ 03-Jul-2013 ✈ KDEN - RJAA / NRT

Flight Track Log - Related Links

Times and Time Zones

All times are in EDT time to prevent confusion due to time zone crossing. See the UAL139 flight status page for this flight to view local times or setup timezone preferences in your user account.

Time Position Orientation Groundspeed Altitude Reporting Facility
EDT Latitude Longitude Course Direction KTS MPH feet Rate Location/Type
14:35 39.8570 -104.6750 351° North  Level FlightAware
14:40 39.8570 -104.6760 270° West 12 14 360 Level FlightAware
14:40 39.8570 -104.6770 270° West 26 30 600 Level FlightAware
14:45 39.8520 -104.6900 270° West 26 30 660 Level FlightAware
14:46 39.8520 -104.6930 270° West 15 17 2,040 Level FlightAware
14:48 39.8810 -104.6960 355° North 199 229 5,200 2,400 Climbing FlightAware
14:48 39.8920 -104.6960 360° North 207 238 5,600 1,980 Climbing FlightAware
14:48 39.9015 -104.6960 360° North 213 245 5,900 2,400 Climbing FlightAware ADS-B
14:48 39.9069 -104.6960 360° North 214 246 6,200 2,760 Climbing FlightAware ADS-B
14:49 39.9164 -104.6970 355° North 217 250 6,600 2,280 Climbing FlightAware ADS-B
14:49 39.9202 -104.6980 349° North 223 257 6,700 720 Climbing FlightAware ADS-B
14:49 39.9236 -104.7000 336° Northwest 228 262 6,700  Level FlightAware ADS-B
14:49 39.9265 -104.7030 322° Northwest 232 267 6,700 840 Level FlightAware ADS-B
14:49 39.9297 -104.7080 310° West 236 272 6,800 1,680 Climbing FlightAware ADS-B
14:49 39.9316 -104.7110 310° West 239 275 6,900 840 Climbing FlightAware ADS-B
14:49 39.9334 -104.7160 295° West 245 282 6,900 840 Level FlightAware ADS-B
14:49 39.9346 -104.7200 291° West 249 287 7,000 1,980 Climbing FlightAware ADS-B
14:49 39.9353 -104.7250 280° West 253 291 7,100 1,500 Climbing FlightAware ADS-B
14:49 39.9359 -104.7320 276° West 259 298 7,200 1,140 Climbing FlightAware ADS-B
14:49 39.9366 -104.7590 272° West 279 321 7,500 1,500 Climbing FlightAware ADS-B
14:50 39.9374 -104.7850 272° West 290 334 8,000 2,100 Climbing FlightAware ADS-B
14:50 39.9382 -104.8120 272° West 295 339 8,600 2,760 Climbing FlightAware ADS-B
14:50 39.9392 -104.8420 272° West 290 334 9,500 2,580 Climbing FlightAware ADS-B
14:51 39.9419 -104.8980 274° West 305 351 10,700 1,680 Climbing FlightAware ADS-B
14:51 39.9434 -104.9260 274° West 327 376 10,800 180 Climbing FlightAware ADS-B
14:51 39.9434 -104.9470 270° West 337 388 10,800 1,320 Level FlightAware ADS-B
14:52 39.9390 -105.0250 266° West 346 398 11,900 1,980 Climbing FlightAware
14:52 39.9377 -105.0460 265° West 348 400 12,400 2,700 Climbing FlightAware ADS-B
14:52 39.9330 -105.1150 265° West 353 406 13,800 2,460 Climbing FlightAware
14:53 39.9312 -105.1380 264° West 354 407 14,200 2,100 Climbing FlightAware ADS-B
14:53 39.9270 -105.2040 265° West 363 418 15,300 2,100 Climbing FlightAware
14:53 39.9271 -105.2210 270° West 361 415 15,600 2,040 Climbing FlightAware ADS-B
14:54 39.9321 -105.2950 275° West 375 432 16,700 2,100 Climbing FlightAware ADS-B
14:54 39.9380 -105.3780 275° West 382 440 18,100 2,220 Climbing FlightAware
14:55 39.9390 -105.3980 274° West 383 441 18,400 2,100 Climbing FlightAware ADS-B
14:55 39.9434 -105.4670 275° West 386 444 19,500 1,980 Climbing FlightAware ADS-B
14:56 39.9485 -105.5490 275° West 396 456 20,600 1,860 Climbing FlightAware ADS-B
14:56 39.9536 -105.6290 275° West 405 466 21,600 1,680 Climbing FlightAware ADS-B
14:57 39.9576 -105.7030 274° West 412 474 22,400 1,500 Climbing FlightAware ADS-B
14:57 39.9565 -105.7340 267° West 427 491 22,700 1,620 Climbing FlightAware ADS-B
14:57 39.9511 -105.8110 265° West 430 495 23,600 1,740 Climbing FlightAware ADS-B
14:58 39.9506 -105.8470 269° West 429 494 24,000 1,740 Climbing FlightAware ADS-B
14:58 39.9543 -105.9190 274° West 432 497 24,800 1,740 Climbing FlightAware ADS-B
14:59 39.9623 -106.0050 277° West 433 498 25,800 1,680 Climbing FlightAware ADS-B
14:59 39.9720 -106.1100 277° West 438 504 26,900 1,560 Climbing FlightAware ADS-B
15:00 39.9838 -106.2370 277° West 443 510 28,100 1,440 Climbing FlightAware ADS-B
15:01 39.9922 -106.3270 277° West 451 519 28,900 1,380 Climbing FlightAware ADS-B
15:01 40.0010 -106.4080 278° West 451 519 29,600 1,320 Climbing FlightAware
15:02 40.0240 -106.4840 292° West 436 502 30,300 1,380 Climbing FlightAware
15:02 40.0750 -106.5850 303° West 438 504 31,400 1,260 Climbing FlightAware
15:03 40.1150 -106.6620 304° West 443 510 32,100 1,020 Climbing FlightAware
15:04 40.1590 -106.7510 303° West 449 517 32,800 1,020 Climbing FlightAware
15:05 40.2140 -106.8590 304° West 454 522 33,600 1,260 Climbing FlightAware
15:05 40.2480 -106.9270 303° West 450 518 34,400 1,560 Climbing FlightAware
15:06 40.2850 -107.0000 304° West 441 507 35,300 960 Climbing FlightAware
15:06 40.3310 -107.0930 303° West 438 504 35,700 540 Climbing FlightAware
15:07 40.3810 -107.1940 303° West 437 503 36,200 840 Climbing FlightAware
15:08 40.4300 -107.2840 306° West 437 503 36,900 480 Climbing FlightAware
15:09 40.5060 -107.4100 308° West 440 506 37,000 300 Climbing FlightAware
15:09 40.5580 -107.4970 308° West 440 506 37,400 600 Climbing FlightAware
15:10 40.6130 -107.5890 308° West 439 505 37,900 360 Climbing FlightAware
15:11 40.6690 -107.6830 308° West 438 504 38,000  Climbing FlightAware
15:12 40.7500 -107.8190 308° West 438 504 38,000  Level FlightAware
15:13 40.7940 -107.8940 308° West 438 504 38,000  Level FlightAware
15:13 40.7230 -107.7740 128° Southeast 38,000  Level FlightAware
15:14 40.8520 -107.9920 308° West 446 513 38,000  Level FlightAware
15:15 40.9520 -108.1640 308° West 447 514 38,000  Level FlightAware
15:15 40.9930 -108.2360 307° West 447 514 38,000  Level FlightAware
15:16 41.0440 -108.3260 307° West 447 514 38,000  Level FlightAware
15:17 41.0830 -108.3940 307° West 447 514 38,000  Level FlightAware
15:18 41.1340 -108.4840 307° West 447 514 38,000  Level FlightAware
15:18 41.1710 -108.5490 307° West 447 514 38,000  Level FlightAware
15:19 41.2220 -108.6410 306° West 447 514 38,000  Level FlightAware
15:20 41.2610 -108.7080 308° West 447 514 38,000  Level FlightAware
15:20 41.2990 -108.7750 307° West 447 514 38,000  Level FlightAware
15:21 41.3360 -108.8400 307° West 447 514 38,000  Level FlightAware
15:21 41.3740 -108.9080 307° West 447 514 38,000  Level FlightAware
15:22 41.4130 -108.9770 307° West 447 514 38,000  Level FlightAware
15:23 41.4510 -109.0440 307° West 447 514 38,000  Level FlightAware
15:23 41.4770 -109.0910 306° West 447 514 38,000  Level FlightAware
15:24 41.5280 -109.1810 307° West 447 514 38,000  Level FlightAware
15:24 41.5540 -109.2260 308° West 447 514 38,000  Level FlightAware
15:26 41.7578 -109.5739 308° West 449 517 38,000  Level Salt Lake Center
15:27 41.8397 -109.7208 307° West 443 510 38,000  Level Salt Lake Center
15:28 41.9103 -109.8481 307° West 443 510 38,000  Level Salt Lake Center
15:29 41.9939 -110.0003 306° West 452 520 38,000  Level Salt Lake Center
15:30 42.0650 -110.1292 307° West 450 518 38,000  Level Salt Lake Center
15:35 42.4650 -110.8640 307° West 447 514 38,000  Level FlightAware
15:36 42.5150 -110.9570 306° West 449 517 38,000  Level FlightAware
15:36 42.5680 -111.0570 306° West 449 517 38,000  Level FlightAware
15:37 42.6220 -111.1610 305° West 450 518 38,000  Level FlightAware
15:38 42.6860 -111.2800 306° West 451 519 38,000  Level FlightAware
15:39 42.7390 -111.3800 306° West 453 521 38,000  Level FlightAware
15:39 42.7670 -111.4340 305° West 453 521 38,000  Level FlightAware
15:40 42.8397 -111.5730 306° West 456 525 38,000  Level FlightAware ADS-B
15:41 42.8772 -111.6440 306° West 453 521 38,000  Level FlightAware ADS-B
15:41 42.9137 -111.7140 305° West 454 522 38,000  Level FlightAware ADS-B
15:42 42.9633 -111.8100 305° West 458 527 38,000  Level FlightAware ADS-B
15:42 43.0038 -111.8880 305° West 458 527 38,000  Level FlightAware ADS-B
15:43 43.0519 -111.9819 305° West 456 525 38,000  Level Salt Lake Center
15:44 43.1222 -112.1189 305° West 457 526 38,000  Level Salt Lake Center
15:45 43.2036 -112.2778 305° West 456 525 38,000  Level Salt Lake Center
15:46 43.2733 -112.4156 305° West 459 528 38,000  Level Salt Lake Center
15:47 43.3553 -112.5756 305° West 459 528 38,000  Level Salt Lake Center
15:48 43.4247 -112.7150 304° West 460 529 38,000  Level Salt Lake Center
15:49 43.5053 -112.8761 305° West 458 527 38,000  Level Salt Lake Center
15:55 43.9079 -113.6930 305° West 458 527 38,000  Level FlightAware ADS-B
15:56 43.9456 -113.7681 305° West 465 535 38,000  Level Salt Lake Center
15:57 44.0208 -113.9278 303° West 450 518 38,000  Level Salt Lake Center
15:58 44.0858 -114.0667 303° West 447 514 38,000  Level Salt Lake Center
16:00 44.2300 -114.3683 304° West 451 519 38,000  Level Salt Lake Center
16:01 44.3089 -114.5314 304° West 453 521 38,000  Level Salt Lake Center
16:02 44.3753 -114.6722 303° West 454 522 38,000  Level Salt Lake Center
16:03 44.4519 -114.8356 303° West 452 520 38,000  Level Salt Lake Center
16:04 44.5175 -114.9758 303° West 451 519 38,000  Level Salt Lake Center
16:05 44.5931 -115.1383 303° West 447 514 38,000  Level Salt Lake Center
16:06 44.6575 -115.2786 303° West 448 516 38,000  Level Salt Lake Center
16:07 44.7217 -115.4189 303° West 447 514 38,000  Level Salt Lake Center
16:08 44.7967 -115.5825 303° West 447 514 38,000  Level Salt Lake Center
16:14 45.2070 -116.5040 303° West 449 517 38,000  Level FlightAware
16:14 45.2360 -116.5690 302° West 452 520 38,000  Level FlightAware
16:15 45.2980 -116.7100 302° West 451 519 38,000  Level FlightAware
16:16 45.3420 -116.8110 302° West 450 518 38,000  Level FlightAware
16:17 45.3830 -116.9050 302° West 447 514 38,000  Level FlightAware
16:17 45.4270 -117.0070 302° West 447 514 38,000  Level FlightAware
16:18 45.4720 -117.1110 302° West 446 513 38,000  Level FlightAware
16:19 45.5130 -117.2070 301° West 446 513 38,000  Level FlightAware
16:19 45.5600 -117.3170 301° West 448 516 38,000  Level FlightAware
16:20 45.6050 -117.4220 302° West 446 513 38,000  Level FlightAware
16:21 45.6470 -117.5210 301° West 445 512 38,000  Level FlightAware
16:22 45.6960 -117.6370 301° West 445 512 38,000  Level FlightAware
16:22 45.7350 -117.7290 301° West 446 513 38,000  Level FlightAware
16:23 45.7770 -117.8300 301° West 446 513 38,000  Level FlightAware
16:23 45.8220 -117.9370 301° West 452 520 38,000  Level FlightAware
16:24 45.8580 -118.0230 301° West 449 517 38,000  Level FlightAware
16:25 45.9030 -118.1310 301° West 447 514 38,000  Level FlightAware
16:25 45.9480 -118.2390 301° West 449 517 38,000  Level FlightAware
16:26 45.9900 -118.3420 300° West 451 519 38,000  Level FlightAware
16:27 46.0360 -118.4540 301° West 450 518 38,000  Level FlightAware
16:28 46.0810 -118.5630 301° West 448 516 38,000  Level FlightAware
16:28 46.1270 -118.6760 300° West 450 518 38,000  Level FlightAware
16:29 46.1660 -118.7710 301° West 452 520 38,000  Level FlightAware
16:30 46.2150 -118.8940 300° West 453 521 38,000  Level FlightAware
16:30 46.2650 -119.0170 300° West 453 521 38,000  Level FlightAware
16:31 46.3040 -119.1150 300° West 451 519 38,000  Level FlightAware
16:32 46.3410 -119.2080 300° West 452 520 38,000  Level FlightAware
16:32 46.3870 -119.3230 300° West 453 521 38,000  Level FlightAware
16:33 46.4310 -119.4320 300° West 454 522 38,000  Level FlightAware
16:34 46.4790 -119.5550 300° West 455 524 38,000  Level FlightAware
16:35 46.5210 -119.6610 300° West 456 525 38,000  Level FlightAware
16:35 46.5710 -119.7890 300° West 455 524 38,000  Level FlightAware ADS-B
16:36 46.6040 -119.8730 300° West 455 524 38,000  Level FlightAware
16:36 46.6199 -119.9140 299° West 455 524 38,000  Level FlightAware ADS-B
16:37 46.6684 -120.0390 300° West 458 527 38,000  Level FlightAware ADS-B
16:37 46.6996 -120.1200 299° West 456 525 38,000  Level FlightAware ADS-B
16:38 46.7309 -120.2010 299° West 453 521 38,000  Level FlightAware ADS-B
16:38 46.7615 -120.2810 299° West 455 524 38,000  Level FlightAware ADS-B
16:39 46.7929 -120.3630 299° West 457 526 38,000  Level FlightAware ADS-B
16:39 46.8251 -120.4470 299° West 457 526 38,000  Level FlightAware ADS-B
16:40 46.8570 -120.5300 299° West 454 522 38,000  Level FlightAware ADS-B
16:40 46.8877 -120.6120 299° West 458 527 38,000  Level FlightAware ADS-B
16:41 46.9193 -120.6950 299° West 455 524 38,000  Level FlightAware ADS-B
16:42 46.9500 -120.7760 299° West 454 522 38,000  Level FlightAware ADS-B
16:42 46.9808 -120.8580 299° West 453 521 38,000  Level FlightAware ADS-B
16:43 47.0108 -120.9380 299° West 452 520 38,000 240 Level FlightAware ADS-B
16:43 47.0443 -121.0280 299° West 453 521 38,300 660 Climbing FlightAware ADS-B
16:44 47.0746 -121.1090 299° West 451 519 38,700 780 Climbing FlightAware ADS-B
16:44 47.1048 -121.1900 299° West 448 516 39,100 480 Climbing FlightAware ADS-B
16:45 47.1351 -121.2720 299° West 452 520 39,200 240 Climbing FlightAware ADS-B
16:45 47.1654 -121.3540 299° West 456 525 39,400 540 Climbing FlightAware ADS-B
16:46 47.1960 -121.4370 299° West 453 521 39,800 540 Climbing FlightAware ADS-B
16:46 47.2261 -121.5190 298° West 452 520 40,000 180 Climbing FlightAware ADS-B
16:47 47.2560 -121.6010 298° West 453 521 40,000  Level FlightAware ADS-B
16:47 47.2858 -121.6830 298° West 454 522 40,000  Level FlightAware ADS-B
16:48 47.3169 -121.7680 298° West 455 524 40,000  Level FlightAware ADS-B
16:48 47.3484 -121.8550 298° West 453 521 40,000  Level FlightAware ADS-B
16:49 47.3781 -121.9370 298° West 455 524 40,000  Level FlightAware ADS-B
16:49 47.4079 -122.0200 298° West 455 524 40,000  Level FlightAware ADS-B
16:50 47.4375 -122.1030 298° West 455 524 40,000  Level FlightAware ADS-B
16:50 47.4672 -122.1850 298° West 456 525 40,000  Level FlightAware ADS-B
16:51 47.4968 -122.2680 298° West 455 524 40,000  Level FlightAware ADS-B
16:51 47.5265 -122.3520 298° West 456 525 40,000  Level FlightAware ADS-B
16:52 47.5561 -122.4350 298° West 456 525 40,000  Level FlightAware ADS-B
16:52 47.5853 -122.5180 298° West 456 525 40,000  Level FlightAware ADS-B
16:53 47.6145 -122.6010 298° West 456 525 40,000  Level FlightAware ADS-B
16:53 47.6438 -122.6840 298° West 458 527 40,000  Level FlightAware ADS-B
16:54 47.6734 -122.7690 297° West 458 527 40,000  Level FlightAware ADS-B
16:54 47.7030 -122.8540 297° West 459 528 40,000  Level FlightAware ADS-B
16:55 47.7322 -122.9380 297° West 459 528 40,000  Level FlightAware ADS-B
16:55 47.7618 -123.0230 297° West 460 529 40,000  Level FlightAware ADS-B
16:56 47.7930 -123.1140 297° West 458 527 40,000  Level FlightAware ADS-B
16:56 47.8223 -123.1990 297° West 459 528 40,000  Level FlightAware ADS-B
16:57 47.8524 -123.2860 297° West 463 533 40,000  Level FlightAware ADS-B
16:57 47.8819 -123.3720 297° West 464 534 40,000  Level FlightAware ADS-B
16:58 47.9111 -123.4580 297° West 463 533 40,000  Level FlightAware ADS-B
16:58 47.9402 -123.5440 297° West 462 532 40,000  Level FlightAware ADS-B
16:59 47.9695 -123.6310 297° West 462 532 40,000  Level FlightAware ADS-B
16:59 47.9986 -123.7170 297° West 460 529 40,000  Level FlightAware ADS-B
17:00 48.0272 -123.8010 297° West 461 531 40,000  Level FlightAware ADS-B
17:00 48.0644 -123.9130 296° West 461 531 40,000  Level FlightAware ADS-B
17:01 48.0931 -123.9980 297° West 460 529 40,000  Level FlightAware ADS-B
17:02 48.1222 -124.0860 296° West 461 531 40,000  Level FlightAware ADS-B
17:02 48.1509 -124.1730 296° West 462 532 40,000  Level FlightAware ADS-B
17:03 48.1793 -124.2590 296° West 462 532 40,000  Level FlightAware ADS-B
17:03 48.2125 -124.3600 296° West 458 527 40,000  Level FlightAware ADS-B
17:04 48.2404 -124.4450 296° West 454 522 40,000  Level FlightAware ADS-B
17:04 48.2690 -124.5320 296° West 454 522 40,000  Level FlightAware ADS-B
17:04 48.2873 -124.5860 297° West 456 525 40,000  Level FlightAware ADS-B
17:06 48.3910 -124.7570 312° West 471 542 40,000  Level FlightAware
17:06 48.4540 -124.8470 317° Northwest 471 542 40,000  Level FlightAware
17:07 48.5190 -124.9400 317° Northwest 473 544 40,000  Level FlightAware
17:08 48.5910 -125.0430 317° Northwest 474 545 40,000  Level FlightAware
17:08 48.6410 -125.1160 316° Northwest 472 543 40,000  Level FlightAware
17:09 48.7090 -125.2140 316° Northwest 471 542 40,000  Level FlightAware
17:10 48.7720 -125.3070 316° Northwest 471 542 40,000  Level FlightAware
17:10 48.8280 -125.3880 316° Northwest 471 542 40,000  Level FlightAware
17:11 48.8880 -125.4770 316° Northwest 471 542 40,000  Level FlightAware
17:12 48.9490 -125.5670 316° Northwest 473 544 40,000  Level FlightAware
17:12 49.0100 -125.6560 316° Northwest 474 545 40,000  Level FlightAware
17:13 49.0830 -125.7650 316° Northwest 476 548 40,000  Level FlightAware
17:14 49.1620 -125.8830 316° Northwest 475 547 40,000  Level FlightAware
17:15 49.2420 -126.0030 316° Northwest 478 550 40,000  Level FlightAware
17:15 49.3050 -126.0960 316° Northwest 475 547 40,000  Level FlightAware
17:16 49.3680 -126.1920 315° West 473 544 40,000  Level FlightAware
17:17 49.4250 -126.2780 316° Northwest 471 542 40,000  Level FlightAware
17:17 49.4890 -126.3750 315° West 468 539 40,000  Level FlightAware
17:18 49.5510 -126.4700 315° West 469 540 40,000  Level FlightAware
17:19 49.6220 -126.5790 315° West 469 540 40,000  Level FlightAware
17:20 49.6890 -126.6830 315° West 468 539 40,000  Level FlightAware
17:20 49.7430 -126.7650 316° Northwest 465 535 40,000  Level FlightAware
17:21 49.8070 -126.8640 315° West 464 534 40,000  Level FlightAware
17:21 49.8610 -126.9490 315° West 462 532 40,000  Level FlightAware
17:22 49.9190 -127.0400 315° West 463 533 40,000  Level FlightAware
17:23 50.0050 -127.1730 315° West 468 539 40,000  Level FlightAware
17:24 50.1200 -127.3550 315° West 470 541 40,000  Level FlightAware
17:25 50.1660 -127.4260 315° West 470 541 40,000  Level FlightAware
17:26 50.2260 -127.5200 315° West 470 541 40,000  Level FlightAware
17:27 50.3420 -127.7100 314° West 473 544 40,000  Level FlightAware
17:27 50.3980 -127.8000 314° West 475 547 40,000  Level FlightAware
17:28 50.4830 -127.9380 314° West 476 548 40,000  Level FlightAware
17:29 50.5610 -128.0630 315° West 475 547 40,000  Level FlightAware
17:30 50.6210 -128.1620 314° West 474 545 40,000  Level FlightAware
17:30 50.6680 -128.2380 314° West 474 545 40,000  Level FlightAware
17:31 50.7310 -128.3420 314° West 474 545 40,000  Level FlightAware
17:32 50.7590 -128.3880 314° West 474 545 40,000  Level FlightAware
17:32 50.8220 -128.4900 314° West 474 545 40,000  Level FlightAware
17:33 50.9200 -128.6520 314° West 473 544 40,000  Level FlightAware
17:34 50.9670 -128.7310 313° West 473 544 40,000  Level FlightAware
17:34 51.0140 -128.8070 315° West 473 544 40,000  Level FlightAware
17:35 51.0620 -128.8860 314° West 473 544 40,000  Level FlightAware
17:36 51.1240 -128.9880 314° West 473 544 40,000  Level FlightAware
17:36 51.1680 -129.0610 314° West 473 544 40,000  Level FlightAware
17:37 51.2270 -129.1590 314° West 473 544 40,000  Level FlightAware
17:38 51.2740 -129.2360 314° West 473 544 40,000  Level FlightAware
17:38 51.3360 -129.3390 314° West 473 544 40,000  Level FlightAware
17:39 51.3820 -129.4160 314° West 473 544 40,000  Level FlightAware
17:40 51.4430 -129.5170 314° West 473 544 40,000  Level FlightAware
17:40 51.4870 -129.5900 314° West 473 544 40,000  Level FlightAware
17:41 51.5490 -129.6930 314° West 473 544 40,000  Level FlightAware
17:42 51.5990 -129.7770 314° West 473 544 40,000  Level FlightAware
17:43 51.8000 -130.2000 314° West 470 541 40,000  Level Vancouver Center
17:44 51.8833 -130.3500 312° West 470 541 40,000  Level Vancouver Center
17:45 51.9833 -130.4667 324° Northwest 470 541 40,000  Level Anchorage Center
17:46 52.0667 -130.6167 312° West 480 552 40,000  Level Anchorage Center
17:47 52.1667 -130.7833 314° West 480 552 40,000  Level Anchorage Center
17:48 52.2500 -130.9833 304° West 480 552 40,000  Level Vancouver Center
17:49 52.3167 -131.1333 306° West 480 552 40,000  Level Vancouver Center
17:50 52.4333 -131.3000 319° Northwest 480 552 40,000  Level Vancouver Center
17:51 52.5167 -131.4333 316° Northwest 480 552 40,000  Level Anchorage Center
17:52 52.6000 -131.6000 310° West 480 552 40,000  Level Anchorage Center
17:53 52.7000 -131.7667 315° West 480 552 40,000  Level Anchorage Center
17:54 52.7833 -131.9333 310° West 480 552 40,000  Level Anchorage Center
17:55 52.8667 -132.1000 310° West 480 552 40,000  Level Anchorage Center
17:56 52.9500 -132.2667 310° West 480 552 40,000  Level Anchorage Center
17:57 53.0500 -132.4333 315° West 480 552 40,000  Level Anchorage Center
17:58 53.1333 -132.6000 310° West 480 552 40,000  Level Anchorage Center
17:59 53.2167 -132.8167 303° West 480 552 40,000  Level Vancouver Center
18:00 53.2833 -132.9667 307° West 480 552 40,000  Level Vancouver Center
18:01 53.3833 -133.1667 310° West 480 552 40,000  Level Vancouver Center
18:02 53.4500 -133.3167 307° West 480 552 40,000  Level Vancouver Center
18:03 53.5500 -133.4833 315° West 480 552 40,000  Level Vancouver Center
18:04 53.6333 -133.6667 308° West 480 552 40,000  Level Vancouver Center
18:05 53.7333 -133.8000 322° Northwest 480 552 40,000  Level Anchorage Center
18:06 53.8167 -133.9667 310° West 480 552 40,000  Level Anchorage Center
18:07 53.9167 -134.1500 313° West 480 552 40,000  Level Anchorage Center
18:08 53.9833 -134.3167 304° West 480 552 40,000  Level Anchorage Center
18:09 54.0667 -134.5500 301° West 480 552 40,000  Level Vancouver Center
18:10 54.1667 -134.6667 326° Northwest 480 552 40,000  Level Anchorage Center
18:11 54.2500 -134.8500 308° West 480 552 40,000  Level Anchorage Center
18:12 54.3333 -135.0333 308° West 480 552 40,000  Level Anchorage Center
18:13 54.4167 -135.2000 311° West 480 552 40,000  Level Anchorage Center
18:14 54.5000 -135.3833 308° West 480 552 40,000  Level Anchorage Center
18:15 54.5833 -135.5667 308° West 480 552 40,000  Level Anchorage Center
18:16 54.6667 -135.7333 311° West 470 541 40,000  Level Anchorage Center
18:17 54.7500 -135.9167 308° West 490 564 40,000  Level Anchorage Center
18:18 54.8333 -136.1000 308° West 480 552 40,000  Level Anchorage Center
18:19 54.9167 -136.2833 308° West 480 552 40,000  Level Anchorage Center
18:20 55.0167 -136.4667 314° West 490 564 40,000  Level Anchorage Center
18:21 55.1000 -136.6667 306° West 480 552 40,000  Level Anchorage Center
18:22 55.1667 -136.8500 303° West 480 552 40,000  Level Anchorage Center
18:23 55.2500 -137.0333 309° West 480 552 40,000  Level Anchorage Center
18:24 55.3333 -137.2167 309° West 480 552 40,000  Level Anchorage Center
18:25 55.4167 -137.4000 309° West 480 552 40,000  Level Anchorage Center
18:26 55.5000 -137.6000 306° West 480 552 40,000  Level Anchorage Center
18:27 55.5833 -137.7833 309° West 480 552 40,000  Level Anchorage Center
18:28 55.6667 -137.9667 309° West 480 552 40,000  Level Anchorage Center
18:29 55.7000 -138.1500 288° West 480 552 40,000  Level Vancouver Center
18:30 55.7833 -138.3333 309° West 490 564 40,000  Level Vancouver Center
18:31 55.8833 -138.5500 310° West 490 564 40,000  Level Vancouver Center
18:32 55.9500 -138.7333 303° West 490 564 40,000  Level Vancouver Center
18:33 56.0333 -138.9500 305° West 490 564 40,000  Level Vancouver Center
18:34 56.1167 -139.1167 312° West 490 564 40,000  Level Vancouver Center
18:35 56.2167 -139.3167 312° West 470 541 40,000  Level Anchorage Center
18:36 56.3000 -139.5167 307° West 480 552 40,000  Level Anchorage Center
18:37 56.3833 -139.7000 309° West 480 552 40,000  Level Anchorage Center
18:38 56.4500 -139.9000 301° West 480 552 40,000  Level Anchorage Center
18:39 56.5333 -140.1167 305° West 480 552 40,000  Level Anchorage Center
18:40 56.5500 -140.3167 279° West 480 552 40,000  Level Vancouver Center
18:41 56.6000 -140.5500 291° West 480 552 40,000  Level Vancouver Center
18:42 56.6500 -140.7667 293° West 480 552 40,000  Level Vancouver Center
18:44 56.8000 -141.2333 301° West 480 552 40,000  Level Anchorage Center
18:45 56.8500 -141.4500 293° West 470 541 40,000  Level Anchorage Center
18:46 56.9000 -141.6833 292° West 470 541 40,000  Level Anchorage Center
18:47 56.9500 -141.9000 293° West 470 541 40,000  Level Anchorage Center
18:48 57.0000 -142.1167 293° West 470 541 40,000  Level Anchorage Center
18:49 57.0500 -142.3500 292° West 480 552 40,000  Level Anchorage Center
18:50 57.1000 -142.5833 292° West 470 541 40,000  Level Anchorage Center
18:51 57.1500 -142.8000 293° West 470 541 40,000  Level Anchorage Center
18:52 57.2167 -143.0333 298° West 480 552 40,000  Level Anchorage Center
18:53 57.2500 -143.2667 285° West 490 564 40,000  Level Anchorage Center
18:54 57.3000 -143.5000 292° West 480 552 40,000  Level Anchorage Center
18:55 57.3500 -143.7167 293° West 470 541 40,000  Level Anchorage Center
18:56 57.4000 -143.9500 292° West 470 541 40,000  Level Anchorage Center
18:57 57.4500 -144.1667 293° West 460 529 40,000  Level Anchorage Center
18:58 57.5000 -144.4000 292° West 480 552 40,000  Level Anchorage Center
18:59 57.5500 -144.6333 292° West 470 541 40,000  Level Anchorage Center
19:00 57.5833 -144.8667 285° West 480 552 40,000  Level Anchorage Center
19:01 57.6333 -145.1000 292° West 470 541 40,000  Level Anchorage Center
19:02 57.6833 -145.3333 292° West 470 541 40,000  Level Anchorage Center
19:03 57.7333 -145.5667 292° West 470 541 40,000  Level Anchorage Center
19:04 57.7667 -145.7500 289° West 470 541 40,000  Level Anchorage Center
19:05 57.8167 -146.0333 288° West 470 541 40,000  Level Anchorage Center
19:06 57.8667 -146.2667 292° West 470 541 40,000  Level Anchorage Center
19:07 57.9000 -146.5000 285° West 470 541 40,000  Level Anchorage Center
19:08 57.9500 -146.7333 292° West 480 552 40,000  Level Anchorage Center
19:09 57.9833 -146.9833 284° West 470 541 40,000  Level Anchorage Center
19:10 58.0333 -147.2167 292° West 480 552 40,000  Level Anchorage Center
19:11 58.0833 -147.4500 292° West 470 541 40,000  Level Anchorage Center
19:13 58.1167 -147.7000 284° West 480 552 40,000  Level Anchorage Center
19:18 58.3570 -149.0790 284° West 482 555 40,000  Level FlightAware
19:20 58.4420 -149.6240 287° West 479 551 40,000  Level FlightAware
19:21 58.4690 -149.7990 287° West 480 552 40,000  Level FlightAware
19:23 58.5167 -150.1333 287° West 470 541 40,000  Level Anchorage Center
19:29 58.6930 -151.6920 287° West 479 551 40,000  Level FlightAware
19:29 58.7110 -151.8720 281° West 479 551 40,000  Level FlightAware
19:30 58.7280 -152.0350 281° West 479 551 40,000  Level FlightAware
19:31 58.7410 -152.1640 281° West 479 551 40,000  Level FlightAware
19:31 58.7500 -152.2560 281° West 479 551 40,000  Level FlightAware
19:32 58.7670 -152.4200 281° West 479 551 40,000  Level FlightAware
19:33 58.7840 -152.5920 281° West 479 551 40,000  Level FlightAware
19:33 58.7970 -152.7200 281° West 479 551 40,000  Level FlightAware
19:34 58.8100 -152.8490 281° West 479 551 40,000  Level FlightAware
19:35 58.8240 -152.9880 281° West 479 551 40,000  Level FlightAware
19:35 58.8410 -153.1590 281° West 479 551 40,000  Level FlightAware
19:37 58.8833 -153.6333 281° West 470 541 40,000  Level Anchorage Center
19:38 58.9000 -153.8833 277° West 470 541 40,000  Level Anchorage Center
19:39 58.9167 -154.1333 277° West 470 541 40,000  Level Anchorage Center
19:40 58.9500 -154.4000 284° West 470 541 40,000  Level Anchorage Center
19:41 58.9667 -154.6500 277° West 470 541 40,000  Level Anchorage Center
19:42 58.9833 -154.9167 277° West 470 541 40,000  Level Anchorage Center
19:43 59.0000 -155.1667 277° West 480 552 40,000  Level Anchorage Center
19:44 59.0167 -155.4333 277° West 480 552 40,000  Level Anchorage Center
19:45 59.0333 -155.6833 277° West 480 552 40,000  Level Anchorage Center
19:46 59.0667 -155.9500 284° West 480 552 40,000  Level Anchorage Center
19:47 59.0833 -156.2000 277° West 480 552 40,000  Level Anchorage Center
19:48 59.1000 -156.4667 277° West 480 552 40,000  Level Anchorage Center
19:49 59.1167 -156.7167 278° West 480 552 40,000  Level Anchorage Center
19:50 59.1333 -156.9833 277° West 480 552 40,000  Level Anchorage Center
19:51 59.1500 -157.2500 277° West 480 552 40,000  Level Anchorage Center
19:52 59.1667 -157.5000 278° West 480 552 40,000  Level Anchorage Center
19:53 59.1833 -157.7667 277° West 480 552 40,000  Level Anchorage Center
19:54 59.2000 -158.0333 277° West 470 541 40,000  Level Anchorage Center
19:55 59.2167 -158.2833 278° West 480 552 40,000  Level Anchorage Center
19:56 59.2167 -158.5500 270° West 470 541 40,000  Level Anchorage Center
19:57 59.2333 -158.8167 277° West 480 552 40,000  Level Anchorage Center
19:58 59.2500 -159.0667 278° West 470 541 40,000  Level Anchorage Center
19:59 59.2667 -159.3333 277° West 480 552 40,000  Level Anchorage Center
20:00 59.2833 -159.5833 278° West 480 552 40,000  Level Anchorage Center
20:01 59.2833 -159.8500 270° West 470 541 40,000  Level Anchorage Center
20:02 59.3000 -160.1000 278° West 480 552 40,000  Level Anchorage Center
20:03 59.3000 -160.3667 270° West 480 552 40,000  Level Anchorage Center
20:04 59.3167 -160.6333 277° West 480 552 40,000  Level Anchorage Center
20:06 59.3333 -161.1500 274° West 480 552 40,000  Level Anchorage Center
20:07 59.3333 -161.4167 270° West 480 552 40,000  Level Anchorage Center
20:08 59.3500 -161.6667 278° West 480 552 40,000  Level Anchorage Center
20:09 59.3500 -161.9333 270° West 470 541 40,000  Level Anchorage Center
20:10 59.3667 -162.1833 278° West 470 541 40,000  Level Anchorage Center
20:11 59.3667 -162.4500 270° West 470 541 40,000  Level Anchorage Center
20:12 59.3667 -162.7500 270° West 480 552 40,000  Level Anchorage Center
20:13 59.3667 -163.0167 270° West 470 541 40,000  Level Anchorage Center
20:14 59.3667 -163.2667 270° West 470 541 40,000  Level Anchorage Center
20:15 59.3500 -163.5333 263° West 470 541 40,000  Level Anchorage Center
20:16 59.3167 -163.7833 255° West 470 541 40,000  Level Anchorage Center
20:17 59.3000 -164.0500 263° West 470 541 40,000  Level Anchorage Center
20:18 59.2833 -164.3000 263° West 480 552 40,000  Level Anchorage Center
20:19 59.2667 -164.5667 263° West 480 552 40,000  Level Anchorage Center
20:20 59.2500 -164.8167 263° West 470 541 40,000  Level Anchorage Center
20:21 59.2333 -165.0833 263° West 480 552 40,000  Level Anchorage Center
20:22 59.2167 -165.3333 263° West 480 552 40,000  Level Anchorage Center
20:23 59.2000 -165.6000 263° West 480 552 40,000  Level Anchorage Center
20:24 59.1667 -165.8500 256° West 470 541 40,000  Level Anchorage Center
20:25 59.1500 -166.1167 263° West 480 552 40,000  Level Anchorage Center
20:26 59.1333 -166.3667 263° West 470 541 40,000  Level Anchorage Center
20:27 59.1000 -166.6167 256° West 470 541 40,000  Level Anchorage Center
20:28 59.0833 -166.8833 263° West 480 552 40,000  Level Anchorage Center
20:29 59.0667 -167.1167 262° West 470 541 40,000  Level Anchorage Center
20:30 59.0333 -167.3667 256° West 470 541 40,000  Level Anchorage Center
20:31 59.0167 -167.6167 263° West 470 541 40,000  Level Anchorage Center
20:32 58.9833 -167.8667 256° West 480 552 40,000  Level Anchorage Center
20:33 58.9667 -168.1167 263° West 470 541 40,000  Level Anchorage Center
20:34 58.9333 -168.3833 256° West 470 541 40,000  Level Anchorage Center
20:35 58.9167 -168.6333 263° West 480 552 40,000  Level Anchorage Center
20:36 58.8833 -168.8833 256° West 480 552 40,000  Level Anchorage Center
20:37 58.8500 -169.1333 256° West 470 541 40,000  Level Anchorage Center
20:38 58.8167 -169.3833 256° West 480 552 40,000  Level Anchorage Center
20:39 58.8000 -169.6333 263° West 480 552 40,000  Level Anchorage Center
20:40 58.7667 -169.9000 257° West 480 552 40,000  Level Anchorage Center
20:41 58.7333 -170.1500 256° West 470 541 40,000  Level Anchorage Center
20:42 58.7000 -170.4000 256° West 470 541 40,000  Level Anchorage Center
20:43 58.6833 -170.6500 263° West 480 552 40,000  Level Anchorage Center
20:44 58.6500 -170.9000 256° West 480 552 40,000  Level Anchorage Center
20:45 58.6167 -171.1500 256° West 480 552 40,000  Level Anchorage Center
20:46 58.5833 -171.4000 256° West 470 541 40,000  Level Anchorage Center
20:47 58.5500 -171.6333 255° West 470 541 40,000  Level Anchorage Center
20:48 58.5167 -171.9000 257° West 490 564 40,000  Level Anchorage Center
20:49 58.4833 -172.1333 255° West 470 541 40,000  Level Anchorage Center
20:50 58.4500 -172.3833 256° West 480 552 40,000  Level Anchorage Center
20:51 58.4167 -172.6333 256° West 470 541 40,000  Level Anchorage Center
20:52 58.3833 -172.8833 256° West 480 552 40,000  Level Anchorage Center
20:53 58.3500 -173.1167 255° West 470 541 40,000  Level Anchorage Center
20:54 58.3000 -173.3667 249° West 480 552 40,000  Level Anchorage Center
20:55 58.2667 -173.6167 256° West 480 552 40,000  Level Anchorage Center
20:56 58.2167 -173.8500 248° West 470 541 40,000  Level Anchorage Center
20:57 58.1667 -174.0833 248° West 490 564 40,000  Level Anchorage Center
20:58 58.1167 -174.3167 248° West 490 564 40,000  Level Anchorage Center
20:59 58.0667 -174.5500 248° West 480 552 40,000  Level Anchorage Center
21:00 58.0000 -174.7833 242° Southwest 480 552 40,000  Level Anchorage Center
21:01 57.9500 -175.0167 248° West 480 552 40,000  Level Anchorage Center
21:02 57.9000 -175.2500 248° West 480 552 40,000  Level Anchorage Center
21:03 57.8500 -175.4833 248° West 480 552 40,000  Level Anchorage Center
21:04 57.7833 -175.7167 242° Southwest 480 552 40,000  Level Anchorage Center
21:05 57.7333 -175.9500 248° West 480 552 40,000  Level Anchorage Center
21:06 57.6833 -176.1833 248° West 480 552 40,000  Level Anchorage Center
21:07 57.6167 -176.4167 242° Southwest 480 552 40,000  Level Anchorage Center
21:09 57.5333 -176.8000 245° Southwest 486 559 40,000  Level Anchorage Center
21:11 57.3833 -177.4167 244° Southwest 486 559 40,000  Level Anchorage Center
21:16 57.1282 -178.3637 244° Southwest 486 559 40,000  Level FlightAware Transoceanic
21:17 57.0854 -178.5411 243° Southwest 486 559 40,000  Level FlightAware Transoceanic
21:18 57.0246 -178.7638 243° Southwest 486 559 40,000  Level FlightAware Transoceanic
21:19 56.9634 -178.9858 243° Southwest 486 559 40,000  Level FlightAware Transoceanic
21:20 56.9018 -179.2070 243° Southwest 486 559 40,000  Level FlightAware Transoceanic
21:21 56.8399 -179.4276 243° Southwest 486 559 40,000  Level FlightAware Transoceanic
21:21 56.8000 -179.5500 243° Southwest 490 564 40,000  Level Anchorage Center
21:22 56.7775 -179.6473 243° Southwest 486 559 40,000  Level FlightAware Transoceanic
21:23 56.7147 -179.8664 242° Southwest 486 559 40,000  Level FlightAware Transoceanic
21:24 56.6516 179.9153 242° Southwest 486 559 40,000  Level FlightAware Transoceanic
21:25 56.5881 179.6977 242° Southwest 486 559 40,000  Level FlightAware Transoceanic
21:26 56.5243 179.4808 242° Southwest 486 559 40,000  Level FlightAware Transoceanic
21:27 56.4394 179.2048 242° Southwest 490 564 40,000  Level FlightAware Transoceanic
21:28 56.3782 178.9995 242° Southwest 490 564 40,000  Level FlightAware Transoceanic
21:29 56.3165 178.7950 241° Southwest 490 564 40,000  Level FlightAware Transoceanic
21:30 56.2546 178.5911 241° Southwest 490 564 40,000  Level FlightAware Transoceanic
21:31 56.1923 178.3878 241° Southwest 490 564 40,000  Level FlightAware Transoceanic
21:31 56.1833 178.3667 242° Southwest 486 559 40,000  Level Anchorage Center
21:32 56.1296 178.1853 241° Southwest 490 564 40,000  Level FlightAware Transoceanic
21:32 56.0667 177.9833 241° Southwest 489 563 40,000  Level Anchorage Center
21:33 56.0667 177.9833 241° Southwest 490 564 40,000  Level FlightAware Transoceanic
21:34 55.9992 177.7703 240° Southwest 490 564 40,000  Level FlightAware Transoceanic
21:35 55.9314 177.5579 240° Southwest 490 564 40,000  Level FlightAware Transoceanic
21:36 55.8633 177.3464 240° Southwest 490 564 40,000  Level FlightAware Transoceanic
21:36 55.8167 177.2167 239° Southwest 500 575 40,000  Level Anchorage Center
21:37 55.7947 177.1355 240° Southwest 486 559 40,000  Level FlightAware Transoceanic
21:37 55.7667 177.0500 242° Southwest 490 564 40,000  Level Anchorage Center
21:38 55.7258 176.9254 240° Southwest 486 559 40,000  Level FlightAware Transoceanic
21:38 55.6833 176.8167 238° Southwest 490 564 40,000  Level Anchorage Center
21:39 55.6566 176.7161 240° Southwest 489 563 40,000  Level FlightAware Transoceanic
21:39 55.6333 176.6500 242° Southwest 490 564 40,000  Level Anchorage Center
21:40 55.5870 176.5075 239° Southwest 489 563 40,000  Level FlightAware Transoceanic
21:40 55.5500 176.4167 238° Southwest 500 575 40,000  Level Anchorage Center
21:41 55.5171 176.2996 239° Southwest 489 563 40,000  Level FlightAware Transoceanic
21:41 55.4833 176.2333 237° Southwest 490 564 40,000  Level Anchorage Center
21:42 55.4167 176.0000 243° Southwest 490 564 40,000  Level Anchorage Center
21:43 55.3333 175.7833 236° Southwest 500 575 40,000  Level Anchorage Center
21:44 55.2667 175.6000 238° Southwest 500 575 40,000  Level Anchorage Center
21:45 55.1833 175.3667 238° Southwest 500 575 40,000  Level Anchorage Center
21:46 55.1333 175.1833 245° Southwest 500 575 40,000  Level Anchorage Center
21:47 55.0500 174.9667 236° Southwest 500 575 40,000  Level Anchorage Center
21:48 54.9833 174.7833 238° Southwest 500 575 40,000  Level Anchorage Center
21:49 54.9000 174.5667 236° Southwest 500 575 40,000  Level Anchorage Center
21:50 54.8333 174.3833 238° Southwest 500 575 40,000  Level Anchorage Center
21:51 54.7667 174.1667 242° Southwest 500 575 40,000  Level Anchorage Center
21:52 54.6833 173.9333 238° Southwest 500 575 40,000  Level Anchorage Center
21:53 54.6167 173.7667 235° Southwest 500 575 40,000  Level Anchorage Center
21:54 54.5333 173.5500 237° Southwest 500 575 40,000  Level Anchorage Center
21:55 54.4667 173.3833 236° Southwest 490 564 40,000  Level Anchorage Center
21:56 54.3833 173.1500 239° Southwest 490 564 40,000  Level Anchorage Center
21:57 54.3167 172.9833 236° Southwest 490 564 40,000  Level Anchorage Center
21:58 54.2333 172.7667 237° Southwest 500 575 40,000  Level Anchorage Center
21:59 54.1500 172.5667 235° Southwest 490 564 40,000  Level Anchorage Center
22:00 54.0833 172.4000 236° Southwest 490 564 40,000  Level Anchorage Center
22:01 54.0000 172.1833 237° Southwest 500 575 40,000  Level Anchorage Center
22:02 53.9333 172.0167 236° Southwest 490 564 40,000  Level Anchorage Center
22:03 53.8333 171.8167 230° Southwest 510 587 40,000  Level Anchorage Center
22:04 53.7667 171.6500 236° Southwest 490 564 40,000  Level Anchorage Center
22:05 53.6833 171.4500 235° Southwest 490 564 40,000  Level Anchorage Center
22:06 53.6000 171.2500 235° Southwest 480 552 40,000  Level Anchorage Center
22:07 53.5333 171.0833 236° Southwest 490 564 40,000  Level Anchorage Center
22:08 53.4333 170.8833 230° Southwest 500 575 40,000  Level Anchorage Center
22:09 53.3667 170.7167 236° Southwest 500 575 40,000  Level Anchorage Center
22:10 53.2833 170.5167 235° Southwest 490 564 40,000  Level Anchorage Center
22:11 53.2000 170.3500 230° Southwest 490 564 40,000  Level Anchorage Center
22:12 53.1167 170.1500 235° Southwest 490 564 40,000  Level Anchorage Center
22:13 53.0500 170.0000 234° Southwest 500 575 40,000  Level Anchorage Center
22:14 52.9500 169.7833 233° Southwest 500 575 40,000  Level Anchorage Center
22:15 52.8833 169.5833 241° Southwest 480 552 40,000  Level Anchorage Center
22:16 52.8333 169.4000 246° West 500 575 40,000  Level Anchorage Center
22:17 52.7500 169.1833 238° Southwest 500 575 40,000  Level Anchorage Center
22:19 52.6167 168.8000 240° Southwest 490 564 40,000  Level Anchorage Center
22:20 52.5667 168.6333 244° Southwest 510 587 40,000  Level Anchorage Center
22:21 52.4833 168.4333 236° Southwest 480 552 40,000  Level Anchorage Center
22:22 52.4167 168.2167 243° Southwest 510 587 40,000  Level Anchorage Center
22:23 52.3500 168.0500 237° Southwest 510 587 40,000  Level Anchorage Center
22:24 52.2833 167.8333 243° Southwest 520 598 40,000  Level Anchorage Center
22:25 52.2167 167.6667 237° Southwest 500 575 40,000  Level Anchorage Center
22:26 52.1333 167.4500 238° Southwest 500 575 40,000  Level Anchorage Center
22:29 52.0000 167.0333 239° Southwest 494 568 40,000  Level Anchorage Center
22:35 51.5052 165.7334 238° Southwest 494 568 40,000  Level FlightAware Transoceanic
22:36 51.4333 165.5500 237° Southwest 494 568 40,000  Level FlightAware Transoceanic
22:36 51.4333 165.5500 237° Southwest 486 559 40,000  Level Anchorage Center
22:37 51.3650 165.3818 237° Southwest 494 568 40,000  Level FlightAware Transoceanic
22:38 51.2964 165.2142 237° Southwest 494 568 40,000  Level FlightAware Transoceanic
22:38 51.3000 165.2333 237° Southwest 487 560 40,000  Level Anchorage Center
22:39 51.2276 165.0470 237° Southwest 494 568 40,000  Level FlightAware Transoceanic
22:40 51.1586 164.8803 236° Southwest 494 568 40,000  Level FlightAware Transoceanic
22:41 51.0893 164.7142 236° Southwest 494 568 40,000  Level FlightAware Transoceanic
22:42 51.0197 164.5485 236° Southwest 486 559 40,000  Level FlightAware Transoceanic
22:43 50.9500 164.3833 237° Southwest 486 559 40,000  Level FlightAware Transoceanic
22:43 50.9500 164.3833 237° Southwest 485 558 40,000  Level Anchorage Center
22:44 50.8711 164.1918 237° Southwest 487 560 40,000  Level FlightAware Transoceanic
22:45 50.7919 164.0009 237° Southwest 487 560 40,000  Level FlightAware Transoceanic
22:46 50.7123 163.8106 236° Southwest 487 560 40,000  Level FlightAware Transoceanic
22:47 50.6325 163.6210 236° Southwest 487 560 40,000  Level FlightAware Transoceanic
22:47 50.5833 163.5000 236° Southwest 497 572 40,000  Level Anchorage Center
22:48 50.5523 163.4320 236° Southwest 487 560 40,000  Level FlightAware Transoceanic
22:49 50.4973 163.3031 236° Southwest 485 558 40,000  Level FlightAware Transoceanic
22:50 50.4209 163.1251 236° Southwest 485 558 40,000  Level FlightAware Transoceanic
22:51 50.3442 162.9477 236° Southwest 485 558 40,000  Level FlightAware Transoceanic
22:52 50.2673 162.7708 236° Southwest 485 558 40,000  Level FlightAware Transoceanic
22:53 50.1901 162.5945 236° Southwest 485 558 40,000  Level FlightAware Transoceanic
22:54 50.1183 162.4290 235° Southwest 497 572 40,000  Level FlightAware Transoceanic
22:55 50.0399 162.2525 235° Southwest 497 572 40,000  Level FlightAware Transoceanic
22:56 49.9612 162.0766 235° Southwest 497 572 40,000  Level FlightAware Transoceanic
22:57 49.8822 161.9013 235° Southwest 497 572 40,000  Level FlightAware Transoceanic
22:57 49.8500 161.8333 235° Southwest 479 551 40,000  Level Anchorage Center
22:58 49.8029 161.7266 235° Southwest 497 572 40,000  Level FlightAware Transoceanic
22:59 49.7234 161.5524 235° Southwest 497 572 40,000  Level FlightAware Transoceanic
23:00 49.6436 161.3788 235° Southwest 497 572 40,000  Level FlightAware Transoceanic
23:01 49.5636 161.2058 234° Southwest 497 572 40,000  Level FlightAware Transoceanic
23:02 49.4833 161.0333 234° Southwest 497 572 40,000  Level FlightAware Transoceanic
23:02 49.4833 161.0333 234° Southwest 488 562 40,000  Level Anchorage Center
23:03 49.4034 160.8625 234° Southwest 479 551 40,000  Level FlightAware Transoceanic
23:04 49.3232 160.6922 234° Southwest 479 551 40,000  Level FlightAware Transoceanic
23:05 49.2428 160.5225 234° Southwest 479 551 40,000  Level FlightAware Transoceanic
23:06 49.1621 160.3533 234° Southwest 479 551 40,000  Level FlightAware Transoceanic
23:07 49.0812 160.1847 234° Southwest 479 551 40,000  Level FlightAware Transoceanic
23:08 49.0000 160.0167 233° Southwest 488 562 40,000  Level FlightAware Transoceanic
23:09 48.9177 159.8489 233° Southwest 488 562 40,000  Level FlightAware Transoceanic
23:10 48.8352 159.6816 233° Southwest 488 562 40,000  Level FlightAware Transoceanic
23:11 48.7524 159.5149 233° Southwest 488 562 40,000  Level FlightAware Transoceanic
23:12 48.6694 159.3487 233° Southwest 488 562 40,000  Level FlightAware Transoceanic
23:13 48.5862 159.1831 233° Southwest 488 562 40,000  Level FlightAware Transoceanic
23:14 48.5027 159.0181 233° Southwest 488 562 40,000  Level FlightAware Transoceanic
23:15 48.4189 158.8535 232° Southwest 488 562 40,000  Level FlightAware Transoceanic
23:16 48.3350 158.6896 232° Southwest 488 562 40,000  Level FlightAware Transoceanic
23:17 48.2508 158.5261 232° Southwest 488 562 40,000  Level FlightAware Transoceanic
23:18 48.1664 158.3632 232° Southwest 488 562 40,000  Level FlightAware Transoceanic
23:19 48.0817 158.2009 232° Southwest 488 562 40,000  Level FlightAware Transoceanic
23:20 47.9968 158.0390 232° Southwest 488 562 40,000  Level FlightAware Transoceanic
23:21 47.9118 157.8777 232° Southwest 488 562 40,000  Level FlightAware Transoceanic
23:22 47.8264 157.7170 232° Southwest 488 562 40,000  Level FlightAware Transoceanic
23:23 47.7409 157.5567 231° Southwest 488 562 40,000  Level FlightAware Transoceanic
23:24 47.6551 157.3970 231° Southwest 488 562 40,000  Level FlightAware Transoceanic
23:25 47.5691 157.2378 231° Southwest 488 562 40,000  Level FlightAware Transoceanic
23:26 47.4829 157.0791 231° Southwest 488 562 40,000  Level FlightAware Transoceanic
23:27 47.3965 156.9210 231° Southwest 488 562 40,000  Level FlightAware Transoceanic
23:28 47.3098 156.7634 231° Southwest 488 562 40,000  Level FlightAware Transoceanic
23:29 47.2229 156.6063 231° Southwest 488 562 40,000  Level FlightAware Transoceanic
23:30 47.1359 156.4497 231° Southwest 488 562 40,000  Level FlightAware Transoceanic
23:31 47.0486 156.2936 231° Southwest 488 562 40,000  Level FlightAware Transoceanic
23:32 46.9611 156.1380 230° Southwest 488 562 40,000  Level FlightAware Transoceanic
23:33 46.8733 155.9830 230° Southwest 488 562 40,000  Level FlightAware Transoceanic
23:34 46.7854 155.8284 230° Southwest 488 562 40,000  Level FlightAware Transoceanic
23:35 46.6973 155.6743 230° Southwest 488 562 40,000  Level FlightAware Transoceanic
23:36 46.6090 155.5208 230° Southwest 488 562 40,000  Level FlightAware Transoceanic
23:37 46.5204 155.3678 230° Southwest 488 562 40,000  Level FlightAware Transoceanic
23:38 46.4317 155.2152 230° Southwest 488 562 40,000  Level FlightAware Transoceanic
23:39 46.3427 155.0631 230° Southwest 488 562 40,000  Level FlightAware Transoceanic
23:40 46.2536 154.9116 230° Southwest 488 562 40,000  Level FlightAware Transoceanic
23:41 46.1642 154.7605 229° Southwest 488 562 40,000  Level FlightAware Transoceanic
23:42 46.0747 154.6099 229° Southwest 488 562 40,000  Level FlightAware Transoceanic
23:43 45.9850 154.4599 229° Southwest 488 562 40,000  Level FlightAware Transoceanic
23:44 45.8950 154.3103 229° Southwest 488 562 40,000  Level FlightAware Transoceanic
23:45 45.8049 154.1611 229° Southwest 488 562 40,000  Level FlightAware Transoceanic
23:46 45.7146 154.0125 229° Southwest 488 562 40,000  Level FlightAware Transoceanic
23:47 45.6240 153.8643 229° Southwest 488 562 40,000  Level FlightAware Transoceanic
23:48 45.5331 153.7392 224° Southwest  Level FlightAware Approximate
23:49 45.4420 153.6145 224° Southwest  Level FlightAware Approximate
23:50 45.4550 153.6178 228° Southwest  Level FlightAware Approximate
23:51 45.3709 153.4835 228° Southwest  Level FlightAware Approximate
23:52 45.2867 153.3497 228° Southwest  Level FlightAware Approximate
23:53 45.2023 153.2162 228° Southwest  Level FlightAware Approximate
23:54 45.1178 153.0831 228° Southwest  Level FlightAware Approximate
23:55 45.0331 152.9505 228° Southwest  Level FlightAware Approximate
23:56 44.9483 152.8182 228° Southwest  Level FlightAware Approximate
23:57 44.8633 152.6863 228° Southwest  Level FlightAware Approximate
23:58 44.7782 152.5548 228° Southwest  Level FlightAware Approximate
23:59 44.6929 152.4237 228° Southwest  Level FlightAware Approximate
00:00 44.6074 152.2930 227° Southwest  Level FlightAware Approximate
00:01 44.5218 152.1627 227° Southwest  Level FlightAware Approximate
00:02 44.4361 152.0327 227° Southwest  Level FlightAware Approximate
00:03 44.3502 151.9031 227° Southwest  Level FlightAware Approximate
00:04 44.2642 151.7740 227° Southwest  Level FlightAware Approximate
00:05 44.1780 151.6451 227° Southwest  Level FlightAware Approximate
00:06 44.0917 151.5167 227° Southwest  Level FlightAware Approximate
00:07 44.0052 151.3886 227° Southwest  Level FlightAware Approximate
00:08 43.9186 151.2610 227° Southwest  Level FlightAware Approximate
00:09 43.8319 151.1336 227° Southwest  Level FlightAware Approximate
00:10 43.7450 151.0067 227° Southwest  Level FlightAware Approximate
00:11 43.6580 150.8801 226° Southwest  Level FlightAware Approximate
00:12 43.5708 150.7539 226° Southwest  Level FlightAware Approximate
00:13 43.4835 150.6280 226° Southwest  Level FlightAware Approximate
00:14 43.3961 150.5025 226° Southwest  Level FlightAware Approximate
00:15 43.3085 150.3774 226° Southwest  Level FlightAware Approximate
00:16 43.2208 150.2527 226° Southwest  Level FlightAware Approximate
00:17 43.1329 150.1283 226° Southwest  Level FlightAware Approximate
00:18 43.0449 150.0042 226° Southwest  Level FlightAware Approximate
00:19 42.9568 149.8805 226° Southwest  Level FlightAware Approximate
00:20 42.8686 149.7572 226° Southwest  Level FlightAware Approximate
00:21 42.7802 149.6342 226° Southwest  Level FlightAware Approximate
00:22 42.6917 149.5116 226° Southwest  Level FlightAware Approximate
00:23 42.6030 149.3893 225° Southwest  Level FlightAware Approximate
00:24 42.5143 149.2673 225° Southwest  Level FlightAware Approximate
00:25 42.4254 149.1458 225° Southwest  Level FlightAware Approximate
00:25 42.2760 148.9340 225° Southwest 452 520 40,000  Level FlightAware
00:26 42.3363 149.0245 225° Southwest  Level FlightAware Approximate
00:26 42.2070 148.8410 225° Southwest 452 520 40,000  Level FlightAware
00:27 42.1550 148.7700 225° Southwest 443 510 40,000  Level FlightAware
00:27 42.1030 148.7010 225° Southwest 443 510 40,000  Level FlightAware
00:28 42.0390 148.6140 225° Southwest 443 510 40,000  Level FlightAware
00:29 41.9810 148.5380 224° Southwest 442 509 40,000  Level FlightAware
00:29 41.9270 148.4660 225° Southwest 439 505 40,000  Level FlightAware
00:30 41.8620 148.3790 225° Southwest 439 505 40,000  Level FlightAware
00:31 41.8030 148.3010 225° Southwest 436 502 40,000  Level FlightAware
00:31 41.7380 148.2150 225° Southwest 435 501 40,000  Level FlightAware
00:32 41.6790 148.1390 224° Southwest 442 509 40,000  Level FlightAware
00:33 41.6200 148.0630 224° Southwest 443 510 40,000  Level FlightAware
00:33 41.5630 147.9900 224° Southwest 434 499 40,000  Level FlightAware
00:34 41.5010 147.9100 224° Southwest 432 497 40,000  Level FlightAware
00:35 41.4420 147.8340 224° Southwest 432 497 40,000  Level FlightAware
00:35 41.3850 147.7620 223° Southwest 434 499 40,000  Level FlightAware
00:36 41.3100 147.6660 224° Southwest 434 499 40,000  Level FlightAware
00:37 41.2550 147.5960 224° Southwest 432 497 40,000  Level FlightAware
00:38 41.1860 147.5100 223° Southwest 429 494 40,000  Level FlightAware
00:39 41.1060 147.4080 224° Southwest 425 489 40,000  Level FlightAware
00:39 41.0440 147.3310 223° Southwest 424 488 40,000  Level FlightAware
00:40 40.9840 147.2550 224° Southwest 422 486 40,000  Level FlightAware
00:41 40.9260 147.1820 224° Southwest 425 489 40,000  Level FlightAware
00:41 40.8760 147.1210 223° Southwest 425 489 40,000  Level FlightAware
00:42 40.8110 147.0400 223° Southwest 425 489 40,000  Level FlightAware
00:43 40.7550 146.9690 224° Southwest 425 489 40,000  Level FlightAware
00:43 40.7040 146.9070 223° Southwest 425 489 40,000  Level FlightAware
00:44 40.6410 146.8290 223° Southwest 423 487 40,000  Level FlightAware
00:45 40.5840 146.7580 223° Southwest 423 487 40,000  Level FlightAware
00:45 40.5190 146.6790 223° Southwest 424 488 40,000  Level FlightAware
00:46 40.4610 146.6080 223° Southwest 423 487 40,000  Level FlightAware
00:47 40.4040 146.5370 223° Southwest 423 487 40,000  Level FlightAware
00:47 40.3390 146.4590 222° Southwest 423 487 40,000  Level FlightAware
00:48 40.2740 146.3800 223° Southwest 423 487 40,000  Level FlightAware
00:49 40.2140 146.3070 223° Southwest 418 481 40,000 60 Level FlightAware
00:50 40.1540 146.2350 223° Southwest 419 482 40,100 600 Climbing FlightAware
00:50 40.0870 146.1530 223° Southwest 419 482 40,900 600 Climbing FlightAware
00:51 40.0300 146.0850 222° Southwest 420 483 41,000 60 Climbing FlightAware
00:52 39.9730 146.0170 222° Southwest 413 475 41,000  Level FlightAware
00:52 39.9110 145.9420 223° Southwest 403 464 41,000  Level FlightAware
00:53 39.8530 145.8730 222° Southwest 402 463 41,000  Level FlightAware
00:54 39.7960 145.8040 223° Southwest 402 463 41,000  Level FlightAware
00:55 39.7530 145.7520 223° Southwest 402 463 41,000  Level FlightAware
00:55 39.7100 145.7000 223° Southwest 402 463 41,000  Level FlightAware
00:56 39.6680 145.6480 224° Southwest 402 463 41,000  Level FlightAware
00:57 39.6140 145.5840 222° Southwest 402 463 41,000  Level FlightAware
00:57 39.5600 145.5180 223° Southwest 402 463 41,000  Level FlightAware
00:58 39.5180 145.4680 223° Southwest 402 463 41,000  Level FlightAware
00:59 39.4730 145.4130 223° Southwest 402 463 41,000  Level FlightAware
00:59 39.4180 145.3460 223° Southwest 402 463 41,000  Level FlightAware
01:00 39.3790 145.2990 223° Southwest 402 463 41,000  Level FlightAware
01:01 39.3360 145.2470 223° Southwest 402 463 41,000  Level FlightAware
01:01 39.2830 145.1830 223° Southwest 402 463 41,000  Level FlightAware
01:02 39.2410 145.1330 223° Southwest 402 463 41,000  Level FlightAware
01:03 39.1970 145.0800 223° Southwest 402 463 41,000 -600 Level FlightAware
01:05 39.0158 144.8829 220° Southwest  Level FlightAware Approximate
01:06 38.9194 144.7787 220° Southwest  Level FlightAware Approximate
01:07 38.8230 144.6747 220° Southwest  Level FlightAware Approximate
01:08 38.7283 144.5685 222° Southwest  Level FlightAware Approximate
01:09 38.6340 144.4617 222° Southwest  Level FlightAware Approximate
01:10 38.5396 144.3551 221° Southwest  Level FlightAware Approximate
01:11 38.4455 144.2492 221° Southwest  Level FlightAware Approximate
01:12 38.3513 144.1437 221° Southwest  Level FlightAware Approximate
01:13 38.2570 144.0384 221° Southwest  Level FlightAware Approximate
01:14 38.1627 143.9334 221° Southwest  Level FlightAware Approximate
01:15 38.0682 143.8287 221° Southwest  Level FlightAware Approximate
01:16 37.9736 143.7242 221° Southwest  Level FlightAware Approximate
01:17 37.8790 143.6200 221° Southwest  Level FlightAware Approximate
01:18 37.7824 143.5192 212° Southwest  Level FlightAware Approximate
01:19 37.6766 143.4342 212° Southwest  Level FlightAware Approximate
01:20 37.5707 143.3495 212° Southwest  Level FlightAware Approximate
01:21 37.4648 143.2650 212° Southwest  Level FlightAware Approximate
01:22 37.3588 143.1807 212° Southwest  Level FlightAware Approximate
01:23 37.2527 143.0967 212° Southwest  Level FlightAware Approximate
01:24 37.1466 143.0129 212° Southwest  Level FlightAware Approximate
01:25 37.0406 142.9290 213° Southwest  Level FlightAware Approximate
01:26 36.9350 142.8444 213° Southwest  Level FlightAware Approximate
01:27 36.8294 142.7599 213° Southwest  Level FlightAware Approximate
01:28 36.7237 142.6759 212° Southwest  Level FlightAware Approximate
01:29 36.6171 142.5937 212° Southwest  Level FlightAware Approximate
01:30 36.5100 142.5126 206° Southwest  Level FlightAware Approximate
01:31 36.4020 142.4353 219° Southwest  Level FlightAware Approximate
01:31 36.3650 142.4840 219° Southwest 25,800  Level FlightAware
01:32 36.2300 142.3590 217° Southwest 440 506 24,300 -780 Descending FlightAware
01:33 36.1830 142.3150 217° Southwest 440 506 24,300  Level FlightAware
01:33 36.1340 142.2690 217° Southwest 440 506 24,300 -2,220 Level FlightAware
01:34 36.0120 142.1610 216° Southwest 439 505 20,800 -2,640 Descending FlightAware
01:35 35.9430 142.0980 216° Southwest 415 478 19,900 -1,320 Descending FlightAware
01:35 35.8930 142.0530 216° Southwest 408 470 19,200 -1,200 Descending FlightAware
01:36 35.8320 141.9980 216° Southwest 404 465 18,400 -1,260 Descending FlightAware
01:37 35.7460 141.9210 216° Southwest 387 445 17,200 -1,320 Descending FlightAware
01:38 35.6970 141.8570 227° Southwest 386 444 16,400 -720 Descending FlightAware
01:39 35.6720 141.7470 254° West 392 451 16,100 -600 Descending FlightAware
01:39 35.6750 141.6990 274° West 392 451 15,700 -1,140 Descending FlightAware
01:39 35.6830 141.6640 286° West 390 449 15,400 -1,140 Descending FlightAware
01:40 35.6990 141.5890 285° West 391 450 14,800 -1,140 Descending FlightAware
01:41 35.7210 141.4850 285° West 385 443 13,900 -900 Descending FlightAware
01:42 35.7430 141.3760 284° West 344 396 13,200 -840 Descending FlightAware
01:42 35.7630 141.2840 285° West 315 362 12,400 -900 Descending FlightAware
01:43 35.7790 141.2030 284° West 293 337 11,800 -720 Descending FlightAware
01:44 35.7910 141.1460 285° West 278 320 11,400 -900 Descending FlightAware
01:45 35.8080 141.0500 282° West 283 326 10,400 -1,140 Descending FlightAware
01:45 35.8110 141.0150 276° West 279 321 9,900 -1,260 Descending FlightAware
01:45 35.8140 140.9870 278° West 275 316 9,600 -960 Descending FlightAware
01:46 35.8170 140.9470 275° West 271 312 9,200 -480 Descending FlightAware
01:46 35.8200 140.9040 275° West 272 313 9,200  Level FlightAware
01:47 35.8230 140.8590 275° West 266 306 9,200  Level FlightAware
01:47 35.8260 140.8210 276° West 252 290 9,200  Level FlightAware
01:48 35.8280 140.7990 276° West 254 292 9,200  Level FlightAware
01:48 35.8310 140.7640 276° West 252 290 9,200  Level FlightAware
01:48 35.8350 140.7210 277° West 233 268 9,200  Level FlightAware
01:49 35.8380 140.6880 276° West 233 268 9,200 -420 Level FlightAware
01:49 35.8410 140.6560 277° West 232 267 8,900 -840 Descending FlightAware
01:50 35.8450 140.6200 278° West 231 266 8,500 -900 Descending FlightAware
01:50 35.8500 140.6050 292° West 236 272 8,300 -1,080 Descending FlightAware
01:50 35.8720 140.5790 316° Northwest 243 280 7,800 -1,140 Descending FlightAware
01:51 35.8860 140.5640 319° Northwest 242 278 7,500 -1,020 Descending FlightAware
01:51 35.9000 140.5430 309° West 234 269 7,200 -900 Descending FlightAware
01:51 35.9150 140.5120 301° West 228 262 6,800 -900 Descending FlightAware
01:52 35.9280 140.4810 297° West 222 255 6,400 -660 Descending FlightAware
01:52 35.9420 140.4530 302° West 204 235 6,200 -420 Descending FlightAware
01:53 35.9570 140.4230 302° West 199 229 6,000 -480 Descending FlightAware
01:53 35.9620 140.4130 302° West 198 228 5,900 -600 Descending FlightAware
01:54 35.9720 140.3850 294° West 175 201 5,600 -840 Descending FlightAware
01:54 35.9770 140.3580 283° West 168 193 5,100 -1,080 Descending FlightAware
01:54 35.9800 140.3410 282° West 168 193 4,800 -1,080 Descending FlightAware
01:54 35.9820 140.3300 283° West 166 191 4,600 -900 Descending FlightAware
01:55 35.9810 140.2930 268° West 154 177 4,000 -960 Descending FlightAware
01:56 35.9730 140.2700 247° West 154 177 3,500 -1,080 Descending FlightAware
01:56 35.9670 140.2630 223° Southwest 153 176 3,300 -900 Descending FlightAware
01:56 35.9610 140.2610 195° South 158 182 3,200 -300 Descending FlightAware
01:56 35.9500 140.2580 192° South 162 186 3,200  Level FlightAware
01:56 35.9430 140.2580 180° South 162 186 3,200  Level FlightAware
01:57 35.9290 140.2590 177° South 170 196 3,200  Level FlightAware
01:57 35.9080 140.2710 155° Southeast 177 204 3,200 -480 Level FlightAware
01:58 35.8880 140.2860 149° Southeast 177 204 2,800 -900 Descending FlightAware
01:58 35.8790 140.2920 152° Southeast 175 201 2,600 -900 Descending FlightAware
01:58 35.8600 140.3060 149° Southeast 165 190 2,200 -900 Descending FlightAware
01:59 35.8430 140.3180 150° Southeast 142 163 1,800 -780 Descending FlightAware
01:59 35.8370 140.3230 146° Southeast 134 154 1,700 -600 Descending FlightAware
01:59 35.8210 140.3350 149° Southeast 132 152 1,400 -660 Descending FlightAware
02:00 35.8060 140.3450 152° Southeast 133 153 1,100 -720 Descending FlightAware
02:00 35.7980 140.3510 149° Southeast 134 154 900 -720 Descending FlightAware
02:01 35.7830 140.3620 149° Southeast 135 155 600 -420 Descending FlightAware
02:01 35.7660 140.3750 148° Southeast 134 154 500 -180 Descending FlightAware